createdAt,value
2023-04-11T00:02:06.884Z,1.33
2023-04-11T00:04:34.568Z,1.65
2023-04-11T00:07:01.482Z,1.50
2023-04-11T00:09:28.345Z,1.60
2023-04-11T00:11:56.787Z,1.15
2023-04-11T00:14:23.795Z,1.80
2023-04-11T00:16:53.707Z,1.65
2023-04-11T00:19:23.500Z,1.67
2023-04-11T00:21:51.058Z,1.40
2023-04-11T00:24:18.322Z,1.13
2023-04-11T00:26:45.320Z,1.63
2023-04-11T00:29:12.164Z,1.50
2023-04-11T00:31:39.066Z,1.30
2023-04-11T00:34:05.900Z,1.23
2023-04-11T00:36:32.846Z,1.33
2023-04-11T00:39:01.394Z,1.58
2023-04-11T00:41:28.610Z,1.52
2023-04-11T00:43:55.491Z,1.20
2023-04-11T00:46:22.551Z,1.23
2023-04-11T00:48:49.957Z,1.00
2023-04-11T00:51:17.662Z,0.98
2023-04-11T00:53:45.828Z,1.20
2023-04-11T00:56:13.159Z,1.40
2023-04-11T00:58:41.428Z,1.45
2023-04-11T01:01:11.272Z,1.15
2023-04-11T01:03:41.565Z,1.05
2023-04-11T01:06:14.992Z,1.00
2023-04-11T01:08:43.862Z,1.23
2023-04-11T01:11:12.830Z,1.45
2023-04-11T01:13:41.893Z,1.10
2023-04-11T01:16:12.794Z,1.13
2023-04-11T01:18:39.679Z,1.00
2023-04-11T01:21:07.119Z,1.08
2023-04-11T01:23:34.420Z,1.05
2023-04-11T01:26:01.392Z,1.35
2023-04-11T01:28:28.282Z,1.38
2023-04-11T01:30:55.116Z,1.10
2023-04-11T01:33:22.170Z,1.25
2023-04-11T01:35:49.303Z,1.20
2023-04-11T01:38:16.306Z,0.90
2023-04-11T01:40:45.360Z,1.10
2023-04-11T01:43:12.512Z,1.23
2023-04-11T01:45:41.005Z,1.02
2023-04-11T01:48:08.712Z,0.80
2023-04-11T01:50:35.944Z,1.15
2023-04-11T01:53:02.825Z,1.13
2023-04-11T01:55:29.738Z,1.00
2023-04-11T01:57:56.641Z,0.90
2023-04-11T02:00:24.169Z,1.02
2023-04-11T02:02:51.225Z,0.90
2023-04-11T02:05:18.448Z,1.10
2023-04-11T02:07:45.263Z,1.00
2023-04-11T02:10:12.133Z,0.77
2023-04-11T02:12:39.034Z,1.00
2023-04-11T02:15:06.778Z,0.75
2023-04-11T02:17:33.659Z,0.60
2023-04-11T02:20:01.127Z,0.88
2023-04-11T02:22:28.042Z,0.93
2023-04-11T02:24:54.937Z,0.70
2023-04-11T02:27:22.345Z,0.80
2023-04-11T02:29:49.196Z,0.90
2023-04-11T02:32:16.190Z,0.40
2023-04-11T02:34:43.118Z,0.70
2023-04-11T02:37:10.245Z,0.80
2023-04-11T02:39:37.090Z,0.50
2023-04-11T02:42:04.113Z,0.60
2023-04-11T02:44:31.190Z,0.60
2023-04-11T02:47:01.308Z,0.52
2023-04-11T02:49:28.213Z,0.60
2023-04-11T02:51:55.072Z,0.43
2023-04-11T02:54:21.893Z,0.50
2023-04-11T02:56:48.746Z,0.60
2023-04-11T02:59:15.603Z,0.50
2023-04-11T03:01:42.501Z,0.32
2023-04-11T03:04:09.358Z,0.50
2023-04-11T03:06:36.336Z,0.63
2023-04-11T03:09:03.980Z,0.70
2023-04-11T03:11:30.955Z,0.70
2023-04-11T03:13:57.904Z,0.47
2023-04-11T03:16:25.655Z,0.63
2023-04-11T03:18:52.556Z,0.50
2023-04-11T03:21:19.450Z,0.40
2023-04-11T03:23:46.341Z,0.50
2023-04-11T03:26:14.377Z,0.50
2023-04-11T03:28:41.191Z,0.60
2023-04-11T03:31:08.119Z,0.60
2023-04-11T03:33:35.014Z,0.45
2023-04-11T03:36:01.890Z,0.40
2023-04-11T03:38:29.311Z,0.45
2023-04-11T03:40:56.410Z,0.75
2023-04-11T03:43:23.404Z,0.40
2023-04-11T03:45:51.697Z,0.50
2023-04-11T03:48:20.011Z,0.50
2023-04-11T03:50:47.337Z,0.50
2023-04-11T03:53:14.144Z,0.55
2023-04-11T03:55:41.259Z,0.30
2023-04-11T03:58:08.164Z,0.50
2023-04-11T04:00:35.005Z,0.60
2023-04-11T04:03:02.016Z,0.40
2023-04-11T04:05:29.006Z,0.75
2023-04-11T04:07:56.142Z,0.60
2023-04-11T04:10:23.201Z,0.63
2023-04-11T04:12:50.177Z,0.43
2023-04-11T04:15:17.119Z,0.50
2023-04-11T04:17:44.305Z,0.40
2023-04-11T04:20:11.742Z,0.70
2023-04-11T04:22:38.758Z,0.40
2023-04-11T04:25:06.498Z,0.40
2023-04-11T04:27:33.462Z,0.93
2023-04-11T04:30:03.542Z,0.40
2023-04-11T04:32:31.501Z,0.50
2023-04-11T04:34:58.999Z,0.50
2023-04-11T04:37:27.275Z,0.40
2023-04-11T04:39:56.743Z,0.88
2023-04-11T04:42:30.039Z,0.38
2023-04-11T04:44:57.527Z,0.63
2023-04-11T04:47:31.400Z,0.57
2023-04-11T04:49:59.838Z,0.60
2023-04-11T04:52:28.539Z,0.52
2023-04-11T04:55:01.138Z,0.68
2023-04-11T04:57:29.871Z,0.70
2023-04-11T04:59:58.417Z,0.43
2023-04-11T05:02:26.756Z,0.90
2023-04-11T05:04:57.822Z,0.70
2023-04-11T05:09:51.456Z,0.70
2023-04-11T05:12:21.406Z,0.60
2023-04-11T05:14:48.236Z,0.60
2023-04-11T05:17:15.078Z,0.50
2023-04-11T05:19:41.887Z,0.65
2023-04-11T05:22:08.734Z,1.50
2023-04-11T05:24:35.512Z,0.95
2023-04-11T05:27:02.363Z,0.70
2023-04-11T05:29:30.003Z,0.80
2023-04-11T05:31:56.848Z,0.98
2023-04-11T05:34:23.694Z,1.10
2023-04-11T05:36:50.944Z,1.10
2023-04-11T05:39:17.793Z,0.82
2023-04-11T05:41:44.604Z,1.02
2023-04-11T05:44:11.404Z,0.90
2023-04-11T05:46:38.511Z,0.70
2023-04-11T05:49:05.650Z,0.80
2023-04-11T05:51:32.432Z,0.80
2023-04-11T05:53:59.269Z,0.63
2023-04-11T05:56:26.100Z,0.60
2023-04-11T05:58:53.048Z,0.70
2023-04-11T06:01:19.846Z,0.80
2023-04-11T06:03:47.296Z,0.70
2023-04-11T06:06:14.630Z,1.70
2023-04-11T06:08:41.597Z,0.60
2023-04-11T06:11:08.763Z,0.55
2023-04-11T06:13:35.662Z,0.55
2023-04-11T06:16:02.647Z,0.60
2023-04-11T06:18:29.561Z,0.50
2023-04-11T06:20:56.461Z,0.73
2023-04-11T06:23:23.305Z,0.43
2023-04-11T06:25:50.389Z,0.70
2023-04-11T06:28:17.268Z,1.10
2023-04-11T06:30:44.116Z,0.50
2023-04-11T06:33:11.033Z,0.70
2023-04-11T06:35:37.962Z,0.80
2023-04-11T06:38:04.837Z,0.60
2023-04-11T06:40:31.744Z,0.70
2023-04-11T06:43:00.160Z,0.82
2023-04-11T06:45:27.115Z,0.77
2023-04-11T06:47:54.057Z,0.90
2023-04-11T06:50:20.939Z,1.02
2023-04-11T06:52:47.760Z,0.70
2023-04-11T06:55:15.580Z,0.80
2023-04-11T06:57:44.156Z,0.80
2023-04-11T07:00:13.022Z,0.77
2023-04-11T07:02:40.130Z,0.80
2023-04-11T07:05:09.372Z,2.40
2023-04-11T07:07:36.641Z,0.75
2023-04-11T07:10:05.091Z,0.50
2023-04-11T07:12:31.949Z,0.85
2023-04-11T07:14:58.837Z,0.70
2023-04-11T07:17:25.778Z,0.80
2023-04-11T07:19:52.618Z,1.38
2023-04-11T07:22:19.686Z,1.10
2023-04-11T07:24:46.907Z,0.70
2023-04-11T07:27:17.145Z,0.70
2023-04-11T07:29:44.050Z,1.73
2023-04-11T07:32:10.983Z,1.17
2023-04-11T07:34:38.452Z,1.13
2023-04-11T07:37:05.338Z,0.98
2023-04-11T07:39:33.349Z,0.40
2023-04-11T07:42:00.206Z,0.47
2023-04-11T07:44:27.389Z,0.40
2023-04-11T07:46:54.466Z,0.50
2023-04-11T07:49:21.896Z,0.55
2023-04-11T07:51:48.766Z,0.60
2023-04-11T07:54:15.727Z,0.43
2023-04-11T07:56:42.534Z,0.28
2023-04-11T07:59:09.523Z,0.45
2023-04-11T08:01:36.433Z,0.40
2023-04-11T08:04:03.684Z,0.52
2023-04-11T08:06:31.469Z,0.60
2023-04-11T08:09:00.798Z,0.98
2023-04-11T08:11:27.790Z,0.57
2023-04-11T08:13:54.894Z,0.30
2023-04-11T08:16:21.994Z,0.30
2023-04-11T08:18:48.890Z,1.13
2023-04-11T08:21:16.955Z,0.50
2023-04-11T08:23:43.889Z,0.57
2023-04-11T08:26:12.913Z,0.68
2023-04-11T08:28:42.457Z,0.35
2023-04-11T08:31:10.721Z,0.20
2023-04-11T08:33:39.249Z,0.20
2023-04-11T08:36:10.177Z,0.40
2023-04-11T08:38:38.695Z,0.30
2023-04-11T08:41:06.346Z,0.40
2023-04-11T08:43:39.036Z,1.05
2023-04-11T08:46:11.706Z,0.80
2023-04-11T08:48:39.202Z,0.55
2023-04-11T08:51:06.662Z,1.27
2023-04-11T08:53:39.137Z,0.90
2023-04-11T08:56:06.449Z,0.82
2023-04-11T08:58:33.353Z,0.40
2023-04-11T09:01:27.514Z,0.50
2023-04-11T09:03:55.297Z,0.40
2023-04-11T09:06:22.604Z,0.35
2023-04-11T09:08:49.707Z,0.55
2023-04-11T09:11:17.979Z,0.30
2023-04-11T09:13:44.831Z,0.20
2023-04-11T09:16:14.006Z,0.40
2023-04-11T09:18:43.829Z,0.45
2023-04-11T09:21:14.700Z,1.95
2023-04-11T09:26:13.296Z,0.90
2023-04-11T09:28:45.214Z,0.70
2023-04-11T09:31:13.046Z,0.50
2023-04-11T09:33:52.523Z,0.68
2023-04-11T09:36:24.836Z,0.55
2023-04-11T09:38:51.910Z,0.40
2023-04-11T09:41:32.134Z,0.77
2023-04-11T09:44:00.506Z,0.50
2023-04-11T09:46:27.488Z,0.40
2023-04-11T09:48:55.277Z,0.60
2023-04-11T09:53:54.686Z,0.55
2023-04-11T09:56:22.159Z,0.63
2023-04-11T09:58:50.201Z,0.43
2023-04-11T10:01:20.056Z,0.52
2023-04-11T10:03:50.874Z,0.80
2023-04-11T10:09:11.687Z,0.60
2023-04-11T10:11:43.216Z,1.00
2023-04-11T10:14:42.753Z,0.70
2023-04-11T10:17:23.659Z,0.90
2023-04-11T10:19:57.698Z,1.25
2023-04-11T10:22:46.493Z,0.80
2023-04-11T10:25:24.711Z,0.57
2023-04-11T10:27:53.918Z,0.50
2023-04-11T10:31:08.892Z,0.50
2023-04-11T10:33:38.492Z,0.60
2023-04-11T10:36:10.836Z,0.57
2023-04-11T10:38:47.775Z,0.80
2023-04-11T10:41:25.222Z,0.70
2023-04-11T10:44:15.059Z,1.00
2023-04-11T10:46:55.841Z,1.35
2023-04-11T10:49:40.399Z,1.48
2023-04-11T10:52:23.070Z,1.00
2023-04-11T10:54:52.768Z,1.10
2023-04-11T10:57:21.523Z,0.60
2023-04-11T10:59:51.395Z,0.52
2023-04-11T11:02:19.712Z,0.45
2023-04-11T11:04:47.462Z,0.60
2023-04-11T11:07:18.718Z,0.68
2023-04-11T11:09:52.506Z,0.70
2023-04-11T11:12:19.375Z,0.80
2023-04-11T11:14:47.493Z,0.93
2023-04-11T11:17:17.314Z,0.82
2023-04-11T11:19:48.628Z,0.50
2023-04-11T11:22:25.768Z,0.70
2023-04-11T11:24:53.408Z,0.70
2023-04-11T11:27:22.826Z,0.50
2023-04-11T11:29:51.305Z,0.43
2023-04-11T11:32:36.270Z,0.60
2023-04-11T11:35:15.522Z,0.50
2023-04-11T11:37:42.685Z,0.50
2023-04-11T11:40:14.206Z,0.70
2023-04-11T11:42:41.613Z,0.40
2023-04-11T11:45:16.189Z,0.30
2023-04-11T11:47:45.690Z,0.60
2023-04-11T11:50:29.168Z,0.40
2023-04-11T11:53:13.432Z,0.40
2023-04-11T11:55:41.563Z,0.70
2023-04-11T11:58:08.990Z,0.95
2023-04-11T12:00:39.614Z,0.80
2023-04-11T12:03:11.757Z,0.77
2023-04-11T12:05:39.093Z,1.15
2023-04-11T12:08:07.723Z,1.30
2023-04-11T12:10:45.623Z,1.15
2023-04-11T12:13:22.570Z,1.98
2023-04-11T12:16:02.136Z,1.23
2023-04-11T12:18:29.016Z,1.25
2023-04-11T12:20:55.992Z,0.70
2023-04-11T12:23:23.215Z,1.17
2023-04-11T12:25:50.549Z,1.00
2023-04-11T12:28:17.589Z,1.10
2023-04-11T12:30:44.447Z,0.85
2023-04-11T12:33:11.316Z,0.90
2023-04-11T12:35:38.225Z,1.17
2023-04-11T12:38:05.040Z,0.82
2023-04-11T12:40:32.066Z,1.00
2023-04-11T12:42:58.922Z,1.30
2023-04-11T12:45:27.643Z,1.30
2023-04-11T12:47:54.606Z,1.13
2023-04-11T12:50:23.578Z,1.33
2023-04-11T12:52:50.970Z,0.90
2023-04-11T12:55:18.001Z,1.05
2023-04-11T12:57:44.950Z,0.60
2023-04-11T13:00:13.280Z,0.98
2023-04-11T13:02:44.671Z,1.00
2023-04-11T13:05:15.301Z,0.70
2023-04-11T13:07:45.069Z,0.60
2023-04-11T13:10:14.022Z,1.20
2023-04-11T13:12:44.393Z,0.50
2023-04-11T13:15:13.607Z,0.80
2023-04-11T13:17:40.783Z,0.55
2023-04-11T13:20:10.388Z,0.75
2023-04-11T13:22:39.669Z,0.87
2023-04-11T13:25:07.544Z,0.77
2023-04-11T13:27:35.074Z,0.60
2023-04-11T13:30:04.822Z,0.80
2023-04-11T13:32:32.417Z,0.82
2023-04-11T13:34:59.872Z,3.60
2023-04-11T13:37:27.119Z,4.22
2023-04-11T13:39:54.053Z,1.90
2023-04-11T13:42:23.835Z,0.75
2023-04-11T13:44:50.735Z,0.52
2023-04-11T13:47:17.694Z,0.90
2023-04-11T13:49:44.750Z,0.50
2023-04-11T13:52:11.621Z,1.08
2023-04-11T13:54:39.105Z,0.60
2023-04-11T13:57:07.835Z,0.60
2023-04-11T13:59:35.643Z,0.50
2023-04-11T14:02:02.776Z,0.93
2023-04-11T14:04:29.892Z,0.82
2023-04-11T14:06:57.199Z,1.02
2023-04-11T14:09:24.092Z,0.50
2023-04-11T14:11:51.231Z,0.60
2023-04-11T14:14:18.096Z,0.70
2023-04-11T14:16:44.968Z,0.80
2023-04-11T14:19:11.822Z,0.60
2023-04-11T14:21:38.770Z,0.70
2023-04-11T14:24:06.090Z,0.98
2023-04-11T14:26:32.910Z,0.80
2023-04-11T14:28:59.751Z,0.70
2023-04-11T14:31:27.307Z,0.60
2023-04-11T14:33:54.353Z,0.60
2023-04-11T14:36:21.454Z,0.40
2023-04-11T14:38:48.991Z,0.43
2023-04-11T14:41:15.850Z,0.77
2023-04-11T14:43:42.617Z,0.70
2023-04-11T14:46:10.740Z,0.63
2023-04-11T14:48:37.586Z,0.82
2023-04-11T14:51:04.850Z,0.45
2023-04-11T14:53:32.437Z,0.70
2023-04-11T14:55:59.373Z,0.50
2023-04-11T14:58:26.239Z,0.50
2023-04-11T15:00:53.127Z,0.50
2023-04-11T15:03:20.269Z,0.50
2023-04-11T15:05:47.362Z,0.63
2023-04-11T15:08:14.397Z,0.60
2023-04-11T15:10:41.445Z,0.70
2023-04-11T15:13:09.141Z,0.50
2023-04-11T15:15:36.559Z,0.80
2023-04-11T15:18:24.803Z,0.60
2023-04-11T15:20:52.577Z,0.95
2023-04-11T15:23:20.941Z,0.63
2023-04-11T15:26:01.094Z,0.47
2023-04-11T15:28:34.411Z,0.43
2023-04-11T15:31:02.513Z,0.43
2023-04-11T15:33:31.376Z,0.60
2023-04-11T15:36:00.605Z,0.52
2023-04-11T15:38:28.719Z,0.60
2023-04-11T15:40:59.337Z,0.75
2023-04-11T15:43:26.362Z,0.50
2023-04-11T15:45:54.551Z,0.60
2023-04-11T15:48:21.480Z,0.60
2023-04-11T15:50:48.546Z,0.40
2023-04-11T15:53:15.631Z,0.40
2023-04-11T15:55:43.674Z,0.57
2023-04-11T15:58:10.605Z,0.60
2023-04-11T16:00:39.464Z,0.40
2023-04-11T16:03:08.594Z,0.57
2023-04-11T16:05:41.209Z,0.30
2023-04-11T16:08:08.568Z,0.40
2023-04-11T16:10:35.519Z,0.30
2023-04-11T16:13:02.933Z,0.60
2023-04-11T16:15:29.873Z,0.40
2023-04-11T16:17:56.733Z,0.90
2023-04-11T16:20:23.664Z,0.50
2023-04-11T16:22:50.549Z,0.60
2023-04-11T16:25:20.858Z,0.32
2023-04-11T16:27:48.412Z,0.47
2023-04-11T16:30:15.635Z,0.40
2023-04-11T16:32:43.567Z,0.40
2023-04-11T16:35:10.784Z,0.68
2023-04-11T16:37:37.741Z,1.83
2023-04-11T16:40:11.549Z,1.05
2023-04-11T16:42:39.551Z,0.60
2023-04-11T16:45:08.137Z,0.77
2023-04-11T16:47:35.208Z,1.10
2023-04-11T16:50:02.315Z,0.70
2023-04-11T16:52:29.518Z,0.63
2023-04-11T16:54:56.392Z,0.60
2023-04-11T16:57:24.991Z,0.35
2023-04-11T16:59:51.952Z,0.43
2023-04-11T17:02:18.871Z,0.40
2023-04-11T17:04:45.801Z,0.50
2023-04-11T17:07:12.852Z,0.40
2023-04-11T17:09:41.428Z,0.70
2023-04-11T17:12:08.366Z,0.63
2023-04-11T17:14:36.432Z,0.50
2023-04-11T17:17:03.547Z,0.80
2023-04-11T17:19:30.753Z,0.93
2023-04-11T17:21:57.653Z,0.47
2023-04-11T17:24:25.004Z,0.50
2023-04-11T17:26:52.312Z,0.40
2023-04-11T17:29:20.238Z,1.00
2023-04-11T17:31:47.126Z,0.47
2023-04-11T17:34:13.980Z,0.57
2023-04-11T17:36:42.844Z,1.05
2023-04-11T17:39:16.960Z,0.60
2023-04-11T17:41:45.671Z,0.93
2023-04-11T17:44:13.397Z,0.70
2023-04-11T17:46:40.357Z,0.90
2023-04-11T17:49:07.261Z,1.00
2023-04-11T17:51:34.126Z,0.80
2023-04-11T17:54:01.156Z,0.60
2023-04-11T17:56:28.028Z,1.73
2023-04-11T17:58:56.145Z,0.60
2023-04-11T18:01:23.780Z,1.10
2023-04-11T18:03:50.878Z,0.65
2023-04-11T18:06:18.190Z,0.70
2023-04-11T18:08:50.296Z,1.13
2023-04-11T18:11:17.660Z,0.90
2023-04-11T18:13:44.771Z,0.73
2023-04-11T18:16:12.145Z,0.95
2023-04-11T18:18:39.177Z,0.75
2023-04-11T18:21:07.765Z,1.00
2023-04-11T18:23:35.273Z,0.88
2023-04-11T18:26:02.170Z,0.88
2023-04-11T18:28:29.382Z,1.38
2023-04-11T18:30:56.716Z,0.90
2023-04-11T18:33:23.838Z,1.08
2023-04-11T18:35:50.742Z,1.38
2023-04-11T18:38:17.714Z,1.30
2023-04-11T18:40:44.636Z,0.90
2023-04-11T18:43:11.503Z,1.10
2023-04-11T18:45:39.406Z,0.75
2023-04-11T18:48:07.184Z,1.00
2023-04-11T18:50:38.798Z,0.63
2023-04-11T18:53:09.228Z,0.70
2023-04-11T18:55:38.693Z,0.70
2023-04-11T18:58:09.192Z,0.70
2023-04-11T19:00:36.708Z,1.00
2023-04-11T19:03:05.164Z,1.17
2023-04-11T19:05:33.463Z,1.25
2023-04-11T19:08:00.852Z,1.30
2023-04-11T19:10:27.866Z,1.08
2023-04-11T19:12:54.811Z,1.80
2023-04-11T19:15:21.724Z,1.90
2023-04-11T19:17:48.676Z,1.77
2023-04-11T19:20:16.741Z,1.40
2023-04-11T19:22:43.825Z,1.38
2023-04-11T19:25:11.971Z,0.70
2023-04-11T19:27:41.869Z,1.10
2023-04-11T19:30:11.519Z,1.30
2023-04-11T19:32:40.963Z,1.00
2023-04-11T19:35:10.882Z,1.00
2023-04-11T19:37:38.595Z,1.17
2023-04-11T19:40:07.333Z,1.50
2023-04-11T19:42:37.292Z,1.00
2023-04-11T19:45:05.140Z,0.80
2023-04-11T19:47:32.826Z,0.70
2023-04-11T19:50:01.099Z,1.25
2023-04-11T19:52:28.947Z,0.85
2023-04-11T19:54:56.887Z,1.05
2023-04-11T19:57:27.779Z,0.90
2023-04-11T20:02:21.717Z,0.75
2023-04-11T20:04:49.512Z,1.02
2023-04-11T20:07:16.757Z,0.70
2023-04-11T20:09:43.815Z,1.13
2023-04-11T20:12:10.785Z,0.93
2023-04-11T20:14:38.329Z,0.73
2023-04-11T20:17:06.293Z,0.70
2023-04-11T20:19:33.464Z,0.85
2023-04-11T20:22:03.126Z,1.13
2023-04-11T20:24:29.982Z,1.05
2023-04-11T20:26:57.065Z,1.10
2023-04-11T20:29:30.944Z,0.90
2023-04-11T20:31:58.596Z,0.75
2023-04-11T20:34:25.555Z,0.73
2023-04-11T20:36:52.511Z,1.30
2023-04-11T20:39:19.318Z,1.15
2023-04-11T20:41:46.229Z,1.10
2023-04-11T20:44:17.614Z,0.82
2023-04-11T20:46:45.141Z,0.82
2023-04-11T20:49:11.973Z,0.88
2023-04-11T20:51:38.822Z,1.02
2023-04-11T20:54:05.696Z,0.82
2023-04-11T20:56:35.287Z,1.10
2023-04-11T20:59:03.486Z,0.90
2023-04-11T21:01:32.797Z,1.10
2023-04-11T21:04:03.915Z,0.73
2023-04-11T21:06:32.083Z,0.80
2023-04-11T21:09:04.241Z,0.80
2023-04-11T21:11:32.020Z,0.88
2023-04-11T21:13:58.982Z,0.82
2023-04-11T21:16:26.165Z,1.02
2023-04-11T21:18:53.077Z,1.50
2023-04-11T21:21:19.938Z,1.30
2023-04-11T21:23:46.769Z,1.23
2023-04-11T21:26:13.614Z,1.30
2023-04-11T21:28:40.505Z,1.55
2023-04-11T21:31:07.372Z,1.65
2023-04-11T21:33:34.305Z,1.80
2023-04-11T21:36:01.615Z,1.70
2023-04-11T21:38:29.022Z,1.67
2023-04-11T21:40:57.146Z,1.83
2023-04-11T21:43:24.416Z,1.75
2023-04-11T21:45:51.328Z,1.40
2023-04-11T21:48:18.187Z,1.52
2023-04-11T21:50:45.944Z,1.60
2023-04-11T21:53:13.980Z,1.42
2023-04-11T21:55:47.101Z,1.60
2023-04-11T21:58:28.055Z,1.50
2023-04-11T22:00:55.776Z,1.35
2023-04-11T22:03:23.070Z,1.80
2023-04-11T22:05:52.188Z,1.50
2023-04-11T22:08:20.093Z,1.23
2023-04-11T22:10:48.357Z,1.40
2023-04-11T22:13:18.119Z,1.85
2023-04-11T22:15:46.924Z,1.52
2023-04-11T22:18:14.038Z,1.50
2023-04-11T22:20:46.141Z,1.50
2023-04-11T22:23:13.741Z,1.52
2023-04-11T22:25:44.353Z,1.88
2023-04-11T22:28:20.860Z,1.55
2023-04-11T22:30:47.670Z,1.67
2023-04-11T22:33:15.339Z,1.23
2023-04-11T22:35:47.653Z,1.55
2023-04-11T22:38:17.405Z,1.45
2023-04-11T22:40:44.327Z,1.70
2023-04-11T22:43:11.606Z,2.22
2023-04-11T22:45:38.447Z,1.83
2023-04-11T22:48:06.216Z,1.50
2023-04-11T22:50:37.261Z,1.27
2023-04-11T22:53:05.266Z,1.58
2023-04-11T22:55:35.869Z,1.20
2023-04-11T22:58:03.479Z,1.20
2023-04-11T23:00:31.418Z,1.60
2023-04-11T23:02:59.800Z,1.38
2023-04-11T23:05:26.867Z,1.75
2023-04-11T23:07:53.672Z,1.10
2023-04-11T23:10:20.576Z,1.58
2023-04-11T23:12:49.062Z,1.33
2023-04-11T23:15:16.239Z,1.05
2023-04-11T23:17:43.702Z,1.40
2023-04-11T23:20:13.069Z,1.52
2023-04-11T23:22:43.159Z,1.40
2023-04-11T23:25:15.011Z,0.73
2023-04-11T23:27:43.937Z,1.00
2023-04-11T23:30:12.251Z,1.50
2023-04-11T23:32:39.982Z,1.05
2023-04-11T23:35:08.167Z,1.27
2023-04-11T23:37:35.031Z,1.02
2023-04-11T23:40:10.857Z,1.10
2023-04-11T23:42:38.812Z,1.25
2023-04-11T23:45:10.709Z,1.35
2023-04-11T23:47:38.320Z,0.90
2023-04-11T23:50:05.859Z,1.10
2023-04-11T23:52:34.194Z,0.60
2023-04-11T23:55:01.103Z,1.10
2023-04-11T23:57:28.046Z,1.15
2023-04-11T23:59:54.862Z,0.82
